sensor_id;sensor_type;location;lat;lon;timestamp;P1;durP1;ratioP1;P2;durP2;ratioP2
85204;SDS011;75582;47.444;21.396;2024-02-04T00:00:57;5.00;;;3.78;;
85204;SDS011;75582;47.444;21.396;2024-02-04T00:02:22;4.93;;;3.40;;
85204;SDS011;75582;47.444;21.396;2024-02-04T00:03:49;5.90;;;4.15;;
85204;SDS011;75582;47.444;21.396;2024-02-04T00:05:16;5.30;;;3.60;;
85204;SDS011;75582;47.444;21.396;2024-02-04T00:06:43;6.50;;;3.85;;
85204;SDS011;75582;47.444;21.396;2024-02-04T00:08:10;4.68;;;3.40;;
85204;SDS011;75582;47.444;21.396;2024-02-04T00:09:36;6.13;;;3.95;;
85204;SDS011;75582;47.444;21.396;2024-02-04T00:11:03;5.10;;;3.60;;
85204;SDS011;75582;47.444;21.396;2024-02-04T00:12:33;6.80;;;4.25;;
85204;SDS011;75582;47.444;21.396;2024-02-04T00:14:00;7.78;;;4.35;;
85204;SDS011;75582;47.444;21.396;2024-02-04T00:15:26;6.95;;;4.10;;
85204;SDS011;75582;47.444;21.396;2024-02-04T00:16:52;7.55;;;4.13;;
85204;SDS011;75582;47.444;21.396;2024-02-04T00:18:18;6.50;;;4.07;;
85204;SDS011;75582;47.444;21.396;2024-02-04T00:19:44;6.65;;;4.13;;
85204;SDS011;75582;47.444;21.396;2024-02-04T00:21:10;5.95;;;3.83;;
85204;SDS011;75582;47.444;21.396;2024-02-04T00:22:36;5.38;;;4.00;;
85204;SDS011;75582;47.444;21.396;2024-02-04T00:24:02;9.40;;;5.28;;
85204;SDS011;75582;47.444;21.396;2024-02-04T00:25:28;8.97;;;4.77;;
85204;SDS011;75582;47.444;21.396;2024-02-04T00:26:54;12.73;;;5.78;;
85204;SDS011;75582;47.444;21.396;2024-02-04T00:28:21;11.02;;;6.32;;
85204;SDS011;75582;47.444;21.396;2024-02-04T00:29:46;14.88;;;7.07;;
85204;SDS011;75582;47.444;21.396;2024-02-04T00:31:13;14.88;;;6.82;;
85204;SDS011;75582;47.444;21.396;2024-02-04T00:32:39;15.10;;;6.57;;
85204;SDS011;75582;47.444;21.396;2024-02-04T00:34:05;12.75;;;6.95;;
85204;SDS011;75582;47.444;21.396;2024-02-04T00:35:31;14.85;;;6.50;;
85204;SDS011;75582;47.444;21.396;2024-02-04T00:36:57;12.57;;;6.93;;
85204;SDS011;75582;47.444;21.396;2024-02-04T00:38:23;11.83;;;5.77;;
85204;SDS011;75582;47.444;21.396;2024-02-04T00:39:49;10.13;;;5.40;;
85204;SDS011;75582;47.444;21.396;2024-02-04T00:41:15;12.02;;;5.35;;
85204;SDS011;75582;47.444;21.396;2024-02-04T00:42:41;10.38;;;5.50;;
85204;SDS011;75582;47.444;21.396;2024-02-04T00:44:06;13.30;;;5.53;;
85204;SDS011;75582;47.444;21.396;2024-02-04T00:45:33;9.50;;;4.65;;
85204;SDS011;75582;47.444;21.396;2024-02-04T00:46:58;10.50;;;4.68;;
85204;SDS011;75582;47.444;21.396;2024-02-04T00:48:25;5.25;;;3.40;;
85204;SDS011;75582;47.444;21.396;2024-02-04T00:49:51;5.78;;;3.97;;
85204;SDS011;75582;47.444;21.396;2024-02-04T00:51:17;5.75;;;3.50;;
85204;SDS011;75582;47.444;21.396;2024-02-04T00:52:42;5.22;;;3.50;;
85204;SDS011;75582;47.444;21.396;2024-02-04T00:54:09;4.53;;;3.27;;
85204;SDS011;75582;47.444;21.396;2024-02-04T00:55:34;5.82;;;3.63;;
85204;SDS011;75582;47.444;21.396;2024-02-04T00:57:00;4.50;;;3.30;;
85204;SDS011;75582;47.444;21.396;2024-02-04T00:58:26;4.93;;;3.90;;
85204;SDS011;75582;47.444;21.396;2024-02-04T00:59:52;5.80;;;3.80;;
85204;SDS011;75582;47.444;21.396;2024-02-04T01:01:19;5.35;;;3.30;;
85204;SDS011;75582;47.444;21.396;2024-02-04T01:02:44;4.93;;;3.83;;
85204;SDS011;75582;47.444;21.396;2024-02-04T01:04:11;5.07;;;3.83;;
85204;SDS011;75582;47.444;21.396;2024-02-04T01:05:36;5.13;;;3.33;;
85204;SDS011;75582;47.444;21.396;2024-02-04T01:07:03;6.47;;;3.33;;
85204;SDS011;75582;47.444;21.396;2024-02-04T01:08:29;8.03;;;3.90;;
85204;SDS011;75582;47.444;21.396;2024-02-04T01:10:03;8.32;;;4.38;;
85204;SDS011;75582;47.444;21.396;2024-02-04T01:11:29;5.93;;;3.85;;
85204;SDS011;75582;47.444;21.396;2024-02-04T01:12:54;5.70;;;3.40;;
85204;SDS011;75582;47.444;21.396;2024-02-04T01:14:20;5.28;;;3.40;;
85204;SDS011;75582;47.444;21.396;2024-02-04T01:15:45;4.45;;;3.25;;
85204;SDS011;75582;47.444;21.396;2024-02-04T01:17:11;4.32;;;3.30;;
85204;SDS011;75582;47.444;21.396;2024-02-04T01:18:37;4.80;;;3.00;;
85204;SDS011;75582;47.444;21.396;2024-02-04T01:20:04;4.30;;;3.33;;
85204;SDS011;75582;47.444;21.396;2024-02-04T01:21:38;5.70;;;3.07;;
85204;SDS011;75582;47.444;21.396;2024-02-04T01:23:04;5.23;;;3.33;;
85204;SDS011;75582;47.444;21.396;2024-02-04T01:24:30;4.82;;;3.05;;
85204;SDS011;75582;47.444;21.396;2024-02-04T01:25:57;4.13;;;3.22;;
85204;SDS011;75582;47.444;21.396;2024-02-04T01:27:23;4.68;;;3.30;;
85204;SDS011;75582;47.444;21.396;2024-02-04T01:28:49;5.85;;;3.50;;
85204;SDS011;75582;47.444;21.396;2024-02-04T01:30:14;4.93;;;2.75;;
85204;SDS011;75582;47.444;21.396;2024-02-04T01:31:41;4.10;;;2.97;;
85204;SDS011;75582;47.444;21.396;2024-02-04T01:33:07;4.82;;;3.35;;
85204;SDS011;75582;47.444;21.396;2024-02-04T01:34:33;5.75;;;3.95;;
85204;SDS011;75582;47.444;21.396;2024-02-04T01:35:59;6.13;;;3.55;;
85204;SDS011;75582;47.444;21.396;2024-02-04T01:37:25;6.00;;;3.50;;
85204;SDS011;75582;47.444;21.396;2024-02-04T01:38:50;5.70;;;3.35;;
85204;SDS011;75582;47.444;21.396;2024-02-04T01:40:17;5.15;;;2.97;;
85204;SDS011;75582;47.444;21.396;2024-02-04T01:41:43;4.15;;;2.85;;
85204;SDS011;75582;47.444;21.396;2024-02-04T01:43:10;3.53;;;2.65;;
85204;SDS011;75582;47.444;21.396;2024-02-04T01:44:37;4.60;;;2.55;;
85204;SDS011;75582;47.444;21.396;2024-02-04T01:46:03;4.10;;;2.88;;
85204;SDS011;75582;47.444;21.396;2024-02-04T01:47:28;4.03;;;2.60;;
85204;SDS011;75582;47.444;21.396;2024-02-04T01:48:55;4.15;;;2.75;;
85204;SDS011;75582;47.444;21.396;2024-02-04T01:50:20;3.40;;;2.50;;
85204;SDS011;75582;47.444;21.396;2024-02-04T01:51:46;3.47;;;2.60;;
85204;SDS011;75582;47.444;21.396;2024-02-04T01:53:12;4.35;;;2.75;;
85204;SDS011;75582;47.444;21.396;2024-02-04T01:54:39;3.30;;;2.65;;
85204;SDS011;75582;47.444;21.396;2024-02-04T01:56:05;6.15;;;2.92;;
85204;SDS011;75582;47.444;21.396;2024-02-04T01:57:32;6.28;;;2.58;;
85204;SDS011;75582;47.444;21.396;2024-02-04T01:59:00;3.20;;;2.45;;
85204;SDS011;75582;47.444;21.396;2024-02-04T02:00:26;6.05;;;3.38;;
85204;SDS011;75582;47.444;21.396;2024-02-04T02:01:51;5.85;;;3.30;;
85204;SDS011;75582;47.444;21.396;2024-02-04T02:03:17;4.35;;;2.78;;
85204;SDS011;75582;47.444;21.396;2024-02-04T02:04:44;3.57;;;2.30;;
85204;SDS011;75582;47.444;21.396;2024-02-04T02:06:09;3.20;;;2.40;;
85204;SDS011;75582;47.444;21.396;2024-02-04T02:07:35;3.63;;;2.72;;
85204;SDS011;75582;47.444;21.396;2024-02-04T02:09:02;5.00;;;3.00;;
85204;SDS011;75582;47.444;21.396;2024-02-04T02:10:28;3.65;;;2.50;;
85204;SDS011;75582;47.444;21.396;2024-02-04T02:13:40;3.58;;;2.67;;
85204;SDS011;75582;47.444;21.396;2024-02-04T02:15:10;4.22;;;3.03;;
85204;SDS011;75582;47.444;21.396;2024-02-04T02:16:38;5.10;;;2.95;;
85204;SDS011;75582;47.444;21.396;2024-02-04T02:18:06;5.65;;;2.92;;
85204;SDS011;75582;47.444;21.396;2024-02-04T02:20:12;3.80;;;2.70;;
85204;SDS011;75582;47.444;21.396;2024-02-04T02:23:30;3.20;;;2.22;;
85204;SDS011;75582;47.444;21.396;2024-02-04T02:24:57;4.07;;;2.83;;
85204;SDS011;75582;47.444;21.396;2024-02-04T02:26:24;4.35;;;2.67;;
85204;SDS011;75582;47.444;21.396;2024-02-04T02:27:49;5.78;;;3.20;;
85204;SDS011;75582;47.444;21.396;2024-02-04T02:29:15;4.22;;;2.70;;
85204;SDS011;75582;47.444;21.396;2024-02-04T02:30:41;4.78;;;3.30;;
85204;SDS011;75582;47.444;21.396;2024-02-04T02:32:07;4.57;;;2.75;;
85204;SDS011;75582;47.444;21.396;2024-02-04T02:33:33;4.53;;;3.00;;
85204;SDS011;75582;47.444;21.396;2024-02-04T02:35:00;4.33;;;2.70;;
85204;SDS011;75582;47.444;21.396;2024-02-04T02:36:25;6.07;;;2.50;;
85204;SDS011;75582;47.444;21.396;2024-02-04T02:38:16;5.90;;;2.72;;
85204;SDS011;75582;47.444;21.396;2024-02-04T02:39:56;3.58;;;2.65;;
85204;SDS011;75582;47.444;21.396;2024-02-04T02:41:23;4.07;;;2.97;;
85204;SDS011;75582;47.444;21.396;2024-02-04T02:42:50;3.58;;;2.40;;
85204;SDS011;75582;47.444;21.396;2024-02-04T02:44:17;3.58;;;2.67;;
85204;SDS011;75582;47.444;21.396;2024-02-04T02:45:43;8.32;;;3.10;;
85204;SDS011;75582;47.444;21.396;2024-02-04T02:47:10;4.85;;;3.00;;
85204;SDS011;75582;47.444;21.396;2024-02-04T02:48:36;4.35;;;2.92;;
85204;SDS011;75582;47.444;21.396;2024-02-04T02:50:04;4.60;;;2.97;;
85204;SDS011;75582;47.444;21.396;2024-02-04T02:51:31;5.73;;;3.00;;
85204;SDS011;75582;47.444;21.396;2024-02-04T02:52:57;5.05;;;2.78;;
85204;SDS011;75582;47.444;21.396;2024-02-04T02:54:23;9.15;;;3.60;;
85204;SDS011;75582;47.444;21.396;2024-02-04T02:55:49;9.43;;;3.40;;
85204;SDS011;75582;47.444;21.396;2024-02-04T02:57:14;7.47;;;3.47;;
85204;SDS011;75582;47.444;21.396;2024-02-04T02:58:41;6.35;;;3.42;;
85204;SDS011;75582;47.444;21.396;2024-02-04T03:00:07;8.77;;;3.88;;
85204;SDS011;75582;47.444;21.396;2024-02-04T03:01:34;8.50;;;3.30;;
85204;SDS011;75582;47.444;21.396;2024-02-04T03:03:04;6.28;;;3.08;;
85204;SDS011;75582;47.444;21.396;2024-02-04T03:04:30;4.50;;;2.83;;
85204;SDS011;75582;47.444;21.396;2024-02-04T03:05:56;5.33;;;2.93;;
85204;SDS011;75582;47.444;21.396;2024-02-04T03:07:21;6.40;;;3.22;;
85204;SDS011;75582;47.444;21.396;2024-02-04T03:08:47;8.63;;;3.63;;
85204;SDS011;75582;47.444;21.396;2024-02-04T03:10:13;11.18;;;4.00;;
85204;SDS011;75582;47.444;21.396;2024-02-04T03:11:40;9.52;;;3.70;;
85204;SDS011;75582;47.444;21.396;2024-02-04T03:13:05;9.38;;;3.15;;
85204;SDS011;75582;47.444;21.396;2024-02-04T03:14:31;9.90;;;4.00;;
85204;SDS011;75582;47.444;21.396;2024-02-04T03:15:58;5.38;;;2.70;;
85204;SDS011;75582;47.444;21.396;2024-02-04T03:17:24;4.15;;;3.03;;
85204;SDS011;75582;47.444;21.396;2024-02-04T03:18:51;6.27;;;3.47;;
85204;SDS011;75582;47.444;21.396;2024-02-04T03:20:18;6.10;;;3.47;;
85204;SDS011;75582;47.444;21.396;2024-02-04T03:21:52;4.97;;;2.92;;
85204;SDS011;75582;47.444;21.396;2024-02-04T03:23:18;5.97;;;3.10;;
85204;SDS011;75582;47.444;21.396;2024-02-04T03:24:43;5.03;;;3.22;;
85204;SDS011;75582;47.444;21.396;2024-02-04T03:26:15;4.18;;;2.70;;
85204;SDS011;75582;47.444;21.396;2024-02-04T03:27:44;4.68;;;2.95;;
85204;SDS011;75582;47.444;21.396;2024-02-04T03:29:10;4.18;;;2.90;;
85204;SDS011;75582;47.444;21.396;2024-02-04T03:30:36;4.35;;;2.78;;
85204;SDS011;75582;47.444;21.396;2024-02-04T03:32:02;5.10;;;3.20;;
85204;SDS011;75582;47.444;21.396;2024-02-04T03:33:28;4.57;;;2.85;;
85204;SDS011;75582;47.444;21.396;2024-02-04T03:34:53;4.90;;;3.20;;
85204;SDS011;75582;47.444;21.396;2024-02-04T03:36:22;4.05;;;3.05;;
85204;SDS011;75582;47.444;21.396;2024-02-04T03:37:50;4.43;;;3.38;;
85204;SDS011;75582;47.444;21.396;2024-02-04T03:39:17;4.40;;;2.80;;
85204;SDS011;75582;47.444;21.396;2024-02-04T03:40:42;4.72;;;2.92;;
85204;SDS011;75582;47.444;21.396;2024-02-04T03:42:08;5.63;;;2.90;;
85204;SDS011;75582;47.444;21.396;2024-02-04T03:43:35;5.05;;;3.20;;
85204;SDS011;75582;47.444;21.396;2024-02-04T03:45:01;7.30;;;3.85;;
85204;SDS011;75582;47.444;21.396;2024-02-04T03:46:28;6.20;;;4.60;;
85204;SDS011;75582;47.444;21.396;2024-02-04T03:47:55;4.63;;;3.50;;
85204;SDS011;75582;47.444;21.396;2024-02-04T03:49:23;7.27;;;3.67;;
85204;SDS011;75582;47.444;21.396;2024-02-04T03:50:49;5.00;;;3.50;;
85204;SDS011;75582;47.444;21.396;2024-02-04T03:52:15;6.20;;;3.88;;
85204;SDS011;75582;47.444;21.396;2024-02-04T03:53:40;6.43;;;4.07;;
85204;SDS011;75582;47.444;21.396;2024-02-04T03:55:06;4.82;;;3.15;;
85204;SDS011;75582;47.444;21.396;2024-02-04T03:56:33;4.57;;;2.95;;
85204;SDS011;75582;47.444;21.396;2024-02-04T03:57:59;4.93;;;3.35;;
85204;SDS011;75582;47.444;21.396;2024-02-04T03:59:24;5.50;;;3.33;;
85204;SDS011;75582;47.444;21.396;2024-02-04T04:00:50;4.22;;;2.92;;
85204;SDS011;75582;47.444;21.396;2024-02-04T04:02:17;5.78;;;3.45;;
85204;SDS011;75582;47.444;21.396;2024-02-04T04:03:43;5.30;;;3.43;;
85204;SDS011;75582;47.444;21.396;2024-02-04T04:05:12;4.07;;;2.83;;
85204;SDS011;75582;47.444;21.396;2024-02-04T04:06:37;4.88;;;3.10;;
85204;SDS011;75582;47.444;21.396;2024-02-04T04:08:03;6.70;;;3.20;;
85204;SDS011;75582;47.444;21.396;2024-02-04T04:09:29;4.90;;;3.20;;
85204;SDS011;75582;47.444;21.396;2024-02-04T04:10:56;4.40;;;3.13;;
85204;SDS011;75582;47.444;21.396;2024-02-04T04:12:21;5.57;;;3.38;;
85204;SDS011;75582;47.444;21.396;2024-02-04T04:13:48;5.50;;;3.50;;
85204;SDS011;75582;47.444;21.396;2024-02-04T04:15:14;4.97;;;3.17;;
85204;SDS011;75582;47.444;21.396;2024-02-04T04:16:39;5.30;;;3.20;;
85204;SDS011;75582;47.444;21.396;2024-02-04T04:18:06;4.47;;;3.10;;
85204;SDS011;75582;47.444;21.396;2024-02-04T04:19:32;5.55;;;3.22;;
85204;SDS011;75582;47.444;21.396;2024-02-04T04:21:00;5.78;;;3.25;;
85204;SDS011;75582;47.444;21.396;2024-02-04T04:22:41;6.20;;;3.38;;
85204;SDS011;75582;47.444;21.396;2024-02-04T04:24:07;4.38;;;3.13;;
85204;SDS011;75582;47.444;21.396;2024-02-04T04:25:32;4.10;;;3.00;;
85204;SDS011;75582;47.444;21.396;2024-02-04T04:26:58;6.03;;;3.75;;
85204;SDS011;75582;47.444;21.396;2024-02-04T04:28:24;5.38;;;3.47;;
85204;SDS011;75582;47.444;21.396;2024-02-04T04:29:51;5.03;;;3.20;;
85204;SDS011;75582;47.444;21.396;2024-02-04T04:31:17;4.73;;;3.33;;
85204;SDS011;75582;47.444;21.396;2024-02-04T04:32:43;6.83;;;3.17;;
85204;SDS011;75582;47.444;21.396;2024-02-04T04:34:09;5.32;;;3.63;;
85204;SDS011;75582;47.444;21.396;2024-02-04T04:35:34;5.40;;;3.28;;
85204;SDS011;75582;47.444;21.396;2024-02-04T04:37:01;5.93;;;3.58;;
85204;SDS011;75582;47.444;21.396;2024-02-04T04:38:27;5.45;;;3.70;;
85204;SDS011;75582;47.444;21.396;2024-02-04T04:39:53;6.68;;;3.60;;
85204;SDS011;75582;47.444;21.396;2024-02-04T04:41:18;4.82;;;3.42;;
85204;SDS011;75582;47.444;21.396;2024-02-04T04:42:45;5.57;;;3.58;;
85204;SDS011;75582;47.444;21.396;2024-02-04T04:44:11;5.30;;;3.78;;
85204;SDS011;75582;47.444;21.396;2024-02-04T04:45:36;7.07;;;4.47;;
85204;SDS011;75582;47.444;21.396;2024-02-04T04:47:03;6.00;;;3.90;;
85204;SDS011;75582;47.444;21.396;2024-02-04T04:48:28;7.13;;;4.55;;
85204;SDS011;75582;47.444;21.396;2024-02-04T04:49:54;9.02;;;4.75;;
85204;SDS011;75582;47.444;21.396;2024-02-04T04:51:21;6.03;;;4.38;;
85204;SDS011;75582;47.444;21.396;2024-02-04T04:52:47;7.22;;;4.30;;
85204;SDS011;75582;47.444;21.396;2024-02-04T04:54:12;8.82;;;4.93;;
85204;SDS011;75582;47.444;21.396;2024-02-04T04:55:39;7.25;;;4.30;;
85204;SDS011;75582;47.444;21.396;2024-02-04T04:57:05;5.50;;;3.83;;
85204;SDS011;75582;47.444;21.396;2024-02-04T04:58:30;6.45;;;4.68;;
85204;SDS011;75582;47.444;21.396;2024-02-04T04:59:57;5.95;;;4.15;;
85204;SDS011;75582;47.444;21.396;2024-02-04T05:01:25;6.60;;;4.23;;
85204;SDS011;75582;47.444;21.396;2024-02-04T05:02:52;6.43;;;4.43;;
85204;SDS011;75582;47.444;21.396;2024-02-04T05:04:17;6.18;;;4.18;;
85204;SDS011;75582;47.444;21.396;2024-02-04T05:05:53;6.90;;;4.43;;
85204;SDS011;75582;47.444;21.396;2024-02-04T05:07:19;6.18;;;3.70;;
85204;SDS011;75582;47.444;21.396;2024-02-04T05:08:47;4.53;;;3.55;;
85204;SDS011;75582;47.444;21.396;2024-02-04T05:10:12;7.07;;;3.97;;
85204;SDS011;75582;47.444;21.396;2024-02-04T05:11:39;6.30;;;3.95;;
85204;SDS011;75582;47.444;21.396;2024-02-04T05:13:05;6.38;;;4.18;;
85204;SDS011;75582;47.444;21.396;2024-02-04T05:14:31;6.50;;;3.70;;
85204;SDS011;75582;47.444;21.396;2024-02-04T05:15:57;7.67;;;4.13;;
85204;SDS011;75582;47.444;21.396;2024-02-04T05:17:23;6.88;;;4.57;;
85204;SDS011;75582;47.444;21.396;2024-02-04T05:18:49;6.55;;;3.60;;
85204;SDS011;75582;47.444;21.396;2024-02-04T05:20:15;5.68;;;4.55;;
85204;SDS011;75582;47.444;21.396;2024-02-04T05:21:40;5.28;;;3.78;;
85204;SDS011;75582;47.444;21.396;2024-02-04T05:23:17;7.07;;;3.78;;
85204;SDS011;75582;47.444;21.396;2024-02-04T05:24:43;5.53;;;3.65;;
85204;SDS011;75582;47.444;21.396;2024-02-04T05:26:08;4.68;;;3.35;;
85204;SDS011;75582;47.444;21.396;2024-02-04T05:27:35;4.18;;;3.35;;
85204;SDS011;75582;47.444;21.396;2024-02-04T05:29:01;5.43;;;3.27;;
85204;SDS011;75582;47.444;21.396;2024-02-04T05:30:27;5.70;;;3.30;;
85204;SDS011;75582;47.444;21.396;2024-02-04T05:31:53;4.53;;;3.60;;
85204;SDS011;75582;47.444;21.396;2024-02-04T05:33:20;4.57;;;3.25;;
85204;SDS011;75582;47.444;21.396;2024-02-04T05:34:45;4.20;;;3.45;;
85204;SDS011;75582;47.444;21.396;2024-02-04T05:36:10;5.70;;;3.15;;
85204;SDS011;75582;47.444;21.396;2024-02-04T05:37:36;9.15;;;4.20;;
85204;SDS011;75582;47.444;21.396;2024-02-04T05:39:12;7.07;;;3.97;;
85204;SDS011;75582;47.444;21.396;2024-02-04T05:40:39;5.45;;;3.38;;
85204;SDS011;75582;47.444;21.396;2024-02-04T05:42:04;6.28;;;4.20;;
85204;SDS011;75582;47.444;21.396;2024-02-04T05:43:30;5.85;;;4.20;;
85204;SDS011;75582;47.444;21.396;2024-02-04T05:44:57;6.20;;;3.87;;
85204;SDS011;75582;47.444;21.396;2024-02-04T05:46:23;5.70;;;3.55;;
85204;SDS011;75582;47.444;21.396;2024-02-04T05:47:50;6.47;;;4.38;;
85204;SDS011;75582;47.444;21.396;2024-02-04T05:49:15;6.07;;;4.15;;
85204;SDS011;75582;47.444;21.396;2024-02-04T05:50:42;6.65;;;4.22;;
85204;SDS011;75582;47.444;21.396;2024-02-04T05:52:07;6.57;;;3.90;;
85204;SDS011;75582;47.444;21.396;2024-02-04T05:53:33;6.18;;;4.50;;
85204;SDS011;75582;47.444;21.396;2024-02-04T05:54:59;6.30;;;3.60;;
85204;SDS011;75582;47.444;21.396;2024-02-04T05:56:26;6.05;;;4.47;;
85204;SDS011;75582;47.444;21.396;2024-02-04T05:57:52;5.43;;;4.10;;
85204;SDS011;75582;47.444;21.396;2024-02-04T05:59:18;5.57;;;4.20;;
85204;SDS011;75582;47.444;21.396;2024-02-04T06:00:43;7.30;;;4.53;;
85204;SDS011;75582;47.444;21.396;2024-02-04T06:02:10;6.68;;;4.55;;
85204;SDS011;75582;47.444;21.396;2024-02-04T06:03:35;5.70;;;3.80;;
85204;SDS011;75582;47.444;21.396;2024-02-04T06:05:02;6.03;;;4.05;;
85204;SDS011;75582;47.444;21.396;2024-02-04T06:06:27;6.57;;;4.43;;
85204;SDS011;75582;47.444;21.396;2024-02-04T06:07:54;7.28;;;3.90;;
85204;SDS011;75582;47.444;21.396;2024-02-04T06:09:19;5.57;;;4.03;;
85204;SDS011;75582;47.444;21.396;2024-02-04T06:10:46;5.93;;;4.55;;
85204;SDS011;75582;47.444;21.396;2024-02-04T06:12:12;7.65;;;4.50;;
85204;SDS011;75582;47.444;21.396;2024-02-04T06:13:38;6.77;;;4.23;;
85204;SDS011;75582;47.444;21.396;2024-02-04T06:15:05;7.93;;;4.30;;
85204;SDS011;75582;47.444;21.396;2024-02-04T06:16:31;6.85;;;4.63;;
85204;SDS011;75582;47.444;21.396;2024-02-04T06:17:59;6.35;;;4.30;;
85204;SDS011;75582;47.444;21.396;2024-02-04T06:19:25;7.50;;;4.93;;
85204;SDS011;75582;47.444;21.396;2024-02-04T06:20:51;7.10;;;4.68;;
85204;SDS011;75582;47.444;21.396;2024-02-04T06:22:25;6.63;;;4.53;;
85204;SDS011;75582;47.444;21.396;2024-02-04T06:23:51;6.60;;;4.70;;
85204;SDS011;75582;47.444;21.396;2024-02-04T06:25:17;6.63;;;4.50;;
85204;SDS011;75582;47.444;21.396;2024-02-04T06:26:42;5.40;;;3.80;;
85204;SDS011;75582;47.444;21.396;2024-02-04T06:28:08;5.47;;;4.07;;
85204;SDS011;75582;47.444;21.396;2024-02-04T06:29:36;7.05;;;3.67;;
85204;SDS011;75582;47.444;21.396;2024-02-04T06:31:02;5.38;;;3.95;;
85204;SDS011;75582;47.444;21.396;2024-02-04T06:32:29;6.65;;;4.43;;
85204;SDS011;75582;47.444;21.396;2024-02-04T06:33:55;7.55;;;4.38;;
85204;SDS011;75582;47.444;21.396;2024-02-04T06:35:21;8.32;;;4.65;;
85204;SDS011;75582;47.444;21.396;2024-02-04T06:36:47;8.98;;;5.18;;
85204;SDS011;75582;47.444;21.396;2024-02-04T06:38:13;8.00;;;4.85;;
85204;SDS011;75582;47.444;21.396;2024-02-04T06:39:38;8.18;;;5.35;;
85204;SDS011;75582;47.444;21.396;2024-02-04T06:41:05;9.90;;;5.30;;
85204;SDS011;75582;47.444;21.396;2024-02-04T06:42:31;6.83;;;4.90;;
85204;SDS011;75582;47.444;21.396;2024-02-04T06:43:56;8.50;;;4.85;;
85204;SDS011;75582;47.444;21.396;2024-02-04T06:45:23;5.78;;;4.28;;
85204;SDS011;75582;47.444;21.396;2024-02-04T06:46:49;6.22;;;4.32;;
85204;SDS011;75582;47.444;21.396;2024-02-04T06:48:14;7.57;;;4.18;;
85204;SDS011;75582;47.444;21.396;2024-02-04T06:49:44;6.07;;;4.18;;
85204;SDS011;75582;47.444;21.396;2024-02-04T06:51:10;5.43;;;4.00;;
85204;SDS011;75582;47.444;21.396;2024-02-04T06:52:36;6.00;;;4.38;;
85204;SDS011;75582;47.444;21.396;2024-02-04T06:54:03;5.90;;;4.85;;
85204;SDS011;75582;47.444;21.396;2024-02-04T06:55:28;8.40;;;5.30;;
85204;SDS011;75582;47.444;21.396;2024-02-04T06:56:54;10.10;;;5.60;;
85204;SDS011;75582;47.444;21.396;2024-02-04T06:58:20;8.13;;;5.78;;
85204;SDS011;75582;47.444;21.396;2024-02-04T06:59:46;8.77;;;6.32;;
85204;SDS011;75582;47.444;21.396;2024-02-04T07:01:12;8.48;;;5.88;;
85204;SDS011;75582;47.444;21.396;2024-02-04T07:02:38;6.57;;;4.85;;
85204;SDS011;75582;47.444;21.396;2024-02-04T07:04:04;7.43;;;4.85;;
85204;SDS011;75582;47.444;21.396;2024-02-04T07:05:30;9.32;;;5.32;;
85204;SDS011;75582;47.444;21.396;2024-02-04T07:06:58;8.38;;;5.13;;
85204;SDS011;75582;47.444;21.396;2024-02-04T07:08:25;8.48;;;5.55;;
85204;SDS011;75582;47.444;21.396;2024-02-04T07:09:50;7.85;;;4.35;;
85204;SDS011;75582;47.444;21.396;2024-02-04T07:11:16;6.30;;;4.47;;
85204;SDS011;75582;47.444;21.396;2024-02-04T07:12:43;7.90;;;4.07;;
85204;SDS011;75582;47.444;21.396;2024-02-04T07:14:08;7.30;;;4.38;;
85204;SDS011;75582;47.444;21.396;2024-02-04T07:15:34;6.60;;;4.05;;
85204;SDS011;75582;47.444;21.396;2024-02-04T07:17:00;6.60;;;4.07;;
85204;SDS011;75582;47.444;21.396;2024-02-04T07:18:27;5.53;;;3.83;;
85204;SDS011;75582;47.444;21.396;2024-02-04T07:19:53;5.57;;;3.97;;
85204;SDS011;75582;47.444;21.396;2024-02-04T07:21:19;4.25;;;3.03;;
85204;SDS011;75582;47.444;21.396;2024-02-04T07:22:58;4.82;;;3.20;;
85204;SDS011;75582;47.444;21.396;2024-02-04T07:24:23;4.78;;;2.88;;
85204;SDS011;75582;47.444;21.396;2024-02-04T07:25:50;4.60;;;3.20;;
85204;SDS011;75582;47.444;21.396;2024-02-04T07:27:15;5.05;;;3.05;;
85204;SDS011;75582;47.444;21.396;2024-02-04T07:28:42;4.93;;;3.30;;
85204;SDS011;75582;47.444;21.396;2024-02-04T07:30:07;4.40;;;3.00;;
85204;SDS011;75582;47.444;21.396;2024-02-04T07:31:33;5.47;;;2.95;;
85204;SDS011;75582;47.444;21.396;2024-02-04T07:33:03;5.20;;;3.22;;
85204;SDS011;75582;47.444;21.396;2024-02-04T07:34:28;4.35;;;2.90;;
85204;SDS011;75582;47.444;21.396;2024-02-04T07:35:54;7.20;;;3.30;;
85204;SDS011;75582;47.444;21.396;2024-02-04T07:37:20;3.90;;;3.00;;
85204;SDS011;75582;47.444;21.396;2024-02-04T07:38:47;4.55;;;2.80;;
85204;SDS011;75582;47.444;21.396;2024-02-04T07:40:13;5.23;;;2.57;;
85204;SDS011;75582;47.444;21.396;2024-02-04T07:41:39;3.58;;;2.70;;
85204;SDS011;75582;47.444;21.396;2024-02-04T07:43:04;4.97;;;2.55;;
85204;SDS011;75582;47.444;21.396;2024-02-04T07:44:31;3.80;;;2.30;;
85204;SDS011;75582;47.444;21.396;2024-02-04T07:45:56;4.00;;;2.42;;
85204;SDS011;75582;47.444;21.396;2024-02-04T07:47:23;3.65;;;2.25;;
85204;SDS011;75582;47.444;21.396;2024-02-04T07:48:48;3.17;;;2.20;;
85204;SDS011;75582;47.444;21.396;2024-02-04T07:50:15;3.25;;;2.15;;
85204;SDS011;75582;47.444;21.396;2024-02-04T07:51:40;2.90;;;2.30;;
85204;SDS011;75582;47.444;21.396;2024-02-04T07:53:06;2.85;;;1.88;;
85204;SDS011;75582;47.444;21.396;2024-02-04T07:54:32;3.53;;;2.10;;
85204;SDS011;75582;47.444;21.396;2024-02-04T07:55:58;3.13;;;2.08;;
85204;SDS011;75582;47.444;21.396;2024-02-04T07:57:24;2.70;;;2.00;;
85204;SDS011;75582;47.444;21.396;2024-02-04T07:58:51;4.70;;;2.00;;
85204;SDS011;75582;47.444;21.396;2024-02-04T08:00:17;3.55;;;2.10;;
85204;SDS011;75582;47.444;21.396;2024-02-04T08:01:43;4.30;;;2.20;;
85204;SDS011;75582;47.444;21.396;2024-02-04T08:03:09;3.30;;;1.98;;
85204;SDS011;75582;47.444;21.396;2024-02-04T08:04:36;2.53;;;1.92;;
85204;SDS011;75582;47.444;21.396;2024-02-04T08:06:01;2.08;;;1.65;;
85204;SDS011;75582;47.444;21.396;2024-02-04T08:07:30;2.45;;;1.85;;
85204;SDS011;75582;47.444;21.396;2024-02-04T08:08:56;3.13;;;2.47;;
85204;SDS011;75582;47.444;21.396;2024-02-04T08:10:22;4.20;;;2.60;;
85204;SDS011;75582;47.444;21.396;2024-02-04T08:11:48;4.78;;;2.80;;
85204;SDS011;75582;47.444;21.396;2024-02-04T08:13:14;3.53;;;2.67;;
85204;SDS011;75582;47.444;21.396;2024-02-04T08:14:39;2.75;;;1.83;;
85204;SDS011;75582;47.444;21.396;2024-02-04T08:16:06;3.47;;;2.33;;
85204;SDS011;75582;47.444;21.396;2024-02-04T08:17:31;2.80;;;1.92;;
85204;SDS011;75582;47.444;21.396;2024-02-04T08:18:58;2.88;;;2.20;;
85204;SDS011;75582;47.444;21.396;2024-02-04T08:20:24;3.83;;;2.03;;
85204;SDS011;75582;47.444;21.396;2024-02-04T08:21:51;2.95;;;1.80;;
85204;SDS011;75582;47.444;21.396;2024-02-04T08:23:23;3.37;;;2.30;;
85204;SDS011;75582;47.444;21.396;2024-02-04T08:24:49;3.20;;;1.90;;
85204;SDS011;75582;47.444;21.396;2024-02-04T08:26:15;3.92;;;2.20;;
85204;SDS011;75582;47.444;21.396;2024-02-04T08:27:41;4.82;;;2.45;;
85204;SDS011;75582;47.444;21.396;2024-02-04T08:29:08;2.70;;;1.85;;
85204;SDS011;75582;47.444;21.396;2024-02-04T08:30:33;2.03;;;1.77;;
85204;SDS011;75582;47.444;21.396;2024-02-04T08:32:00;2.35;;;1.75;;
85204;SDS011;75582;47.444;21.396;2024-02-04T08:33:25;3.00;;;1.92;;
85204;SDS011;75582;47.444;21.396;2024-02-04T08:34:52;2.47;;;2.28;;
85204;SDS011;75582;47.444;21.396;2024-02-04T08:36:18;2.30;;;1.70;;
85204;SDS011;75582;47.444;21.396;2024-02-04T08:37:45;2.20;;;1.90;;